createdAt,value
2022-08-16T00:01:54.944Z,21.70
2022-08-16T00:04:22.277Z,29.55
2022-08-16T00:06:48.552Z,20.58
2022-08-16T00:09:15.859Z,19.63
2022-08-16T00:11:43.218Z,18.45
2022-08-16T00:14:11.422Z,21.70
2022-08-16T00:17:00.777Z,17.92
2022-08-16T00:19:28.352Z,15.15
2022-08-16T00:22:01.042Z,20.30
2022-08-16T00:24:32.527Z,14.95
2022-08-16T00:27:00.185Z,18.25
2022-08-16T00:29:27.339Z,21.10
2022-08-16T00:32:01.017Z,17.30
2022-08-16T00:34:43.180Z,23.92
2022-08-16T00:37:20.294Z,19.90
2022-08-16T00:39:56.945Z,17.95
2022-08-16T00:42:29.645Z,16.48
2022-08-16T00:45:00.331Z,18.42
2022-08-16T00:47:26.919Z,22.38
2022-08-16T00:49:56.979Z,15.07
2022-08-16T00:52:29.242Z,14.68
2022-08-16T00:54:56.720Z,17.52
2022-08-16T00:57:24.021Z,15.63
2022-08-16T00:59:57.413Z,20.65
2022-08-16T01:02:30.299Z,19.40
2022-08-16T01:05:09.146Z,17.70
2022-08-16T01:07:50.823Z,17.67
2022-08-16T01:10:20.304Z,17.27
2022-08-16T01:12:46.886Z,22.20
2022-08-16T01:15:14.575Z,19.10
2022-08-16T01:17:42.158Z,16.95
2022-08-16T01:20:23.472Z,18.23
2022-08-16T01:23:01.439Z,20.27
2022-08-16T01:25:36.933Z,31.30
2022-08-16T01:28:07.068Z,19.90
2022-08-16T01:30:40.173Z,22.30
2022-08-16T01:33:16.711Z,19.23
2022-08-16T01:35:52.881Z,18.07
2022-08-16T01:38:39.946Z,21.90
2022-08-16T01:41:19.210Z,28.67
2022-08-16T01:43:47.043Z,16.92
2022-08-16T01:46:39.188Z,17.42
2022-08-16T01:49:09.945Z,18.85
2022-08-16T01:51:39.252Z,17.07
2022-08-16T01:54:05.998Z,18.47
2022-08-16T01:56:33.432Z,20.50
2022-08-16T01:59:01.784Z,19.08
2022-08-16T02:01:28.845Z,17.55
2022-08-16T02:03:58.450Z,22.83
2022-08-16T02:09:05.568Z,19.27
2022-08-16T02:11:47.303Z,21.45
2022-08-16T02:14:18.555Z,20.63
2022-08-16T02:16:47.842Z,21.20
2022-08-16T02:19:16.023Z,19.40
2022-08-16T02:22:09.109Z,19.52
2022-08-16T02:24:31.972Z,18.25
2022-08-16T02:26:59.160Z,21.90
2022-08-16T02:29:32.130Z,17.52
2022-08-16T02:32:04.557Z,22.95
2022-08-16T02:34:45.647Z,19.60
2022-08-16T02:37:16.718Z,19.75
2022-08-16T02:39:47.437Z,25.02
2022-08-16T02:42:20.565Z,21.98
2022-08-16T02:44:46.819Z,17.00
2022-08-16T02:47:25.093Z,21.38
2022-08-16T02:49:58.962Z,19.83
2022-08-16T02:52:38.287Z,21.80
2022-08-16T02:55:05.085Z,19.67
2022-08-16T02:57:31.333Z,19.35
2022-08-16T02:59:58.328Z,22.17
2022-08-16T03:02:32.073Z,25.15
2022-08-16T03:04:59.122Z,19.50
2022-08-16T03:07:27.487Z,22.45
2022-08-16T03:09:54.224Z,18.90
2022-08-16T03:12:20.547Z,27.30
2022-08-16T03:14:56.823Z,20.23
2022-08-16T03:17:23.110Z,22.45
2022-08-16T03:20:02.386Z,21.48
2022-08-16T03:22:29.646Z,20.90
2022-08-16T03:25:00.769Z,23.83
2022-08-16T03:27:31.350Z,27.73
2022-08-16T03:30:17.641Z,21.45
2022-08-16T03:32:47.409Z,20.73
2022-08-16T03:35:14.668Z,20.73
2022-08-16T03:38:03.202Z,20.33
2022-08-16T03:40:33.510Z,22.27
2022-08-16T03:43:20.599Z,18.87
2022-08-16T03:45:46.749Z,21.30
2022-08-16T03:48:15.057Z,21.60
2022-08-16T03:50:44.478Z,21.90
2022-08-16T03:53:26.657Z,24.00
2022-08-16T03:56:04.849Z,23.85
2022-08-16T03:58:33.135Z,24.38
2022-08-16T04:00:59.657Z,22.77
2022-08-16T04:03:26.119Z,23.67
2022-08-16T04:05:56.400Z,22.10
2022-08-16T04:08:24.627Z,24.25
2022-08-16T04:10:54.434Z,23.52
2022-08-16T04:14:00.301Z,25.92
2022-08-16T04:16:08.653Z,24.20
2022-08-16T04:18:38.124Z,22.08
2022-08-16T04:21:05.107Z,24.23
2022-08-16T04:23:32.127Z,30.10
2022-08-16T04:26:02.049Z,25.60
2022-08-16T04:28:51.900Z,22.92
2022-08-16T04:31:14.879Z,21.45
2022-08-16T04:33:50.586Z,24.77
2022-08-16T04:36:20.166Z,19.50
2022-08-16T04:38:47.081Z,18.77
2022-08-16T04:41:17.539Z,16.52
2022-08-16T04:43:44.156Z,20.85
2022-08-16T04:47:01.209Z,24.15
2022-08-16T04:48:56.884Z,21.38
2022-08-16T04:51:23.902Z,25.50
2022-08-16T04:53:52.513Z,25.38
2022-08-16T04:56:19.675Z,20.80
2022-08-16T04:58:47.019Z,23.05
2022-08-16T05:01:13.765Z,24.08
2022-08-16T05:04:01.203Z,26.92
2022-08-16T05:06:45.135Z,26.65
2022-08-16T05:09:12.283Z,30.85
2022-08-16T05:11:39.047Z,23.15
2022-08-16T05:14:06.954Z,25.77
2022-08-16T05:16:33.686Z,25.58
2022-08-16T05:19:02.248Z,22.60
2022-08-16T05:21:38.350Z,23.90
2022-08-16T05:24:06.114Z,28.77
2022-08-16T05:26:34.175Z,31.67
2022-08-16T05:29:03.697Z,29.58
2022-08-16T05:31:30.900Z,29.85
2022-08-16T05:33:59.115Z,27.92
2022-08-16T05:36:33.951Z,30.23
2022-08-16T05:39:04.670Z,28.35
2022-08-16T05:41:30.939Z,35.03
2022-08-16T05:44:00.262Z,40.70
2022-08-16T05:46:31.514Z,33.05
2022-08-16T05:49:05.996Z,36.92
2022-08-16T05:51:38.418Z,31.48
2022-08-16T05:54:06.438Z,29.55
2022-08-16T05:56:32.986Z,30.52
2022-08-16T05:59:02.227Z,32.60
2022-08-16T06:01:29.346Z,31.98
2022-08-16T06:03:59.223Z,32.33
2022-08-16T06:06:28.082Z,30.23
2022-08-16T06:08:55.527Z,30.02
2022-08-16T06:11:22.293Z,35.83
2022-08-16T06:13:52.027Z,37.63
2022-08-16T06:16:22.123Z,34.50
2022-08-16T06:18:53.381Z,37.00
2022-08-16T06:21:22.841Z,37.53
2022-08-16T06:26:20.411Z,34.05
2022-08-16T06:28:46.904Z,32.88
2022-08-16T06:31:13.830Z,34.85
2022-08-16T06:33:42.342Z,34.67
2022-08-16T06:36:11.703Z,34.20
2022-08-16T06:38:55.893Z,38.05
2022-08-16T06:41:22.570Z,35.42
2022-08-16T06:43:51.230Z,33.03
2022-08-16T06:46:32.043Z,44.28
2022-08-16T06:48:58.832Z,36.03
2022-08-16T06:51:25.115Z,35.63
2022-08-16T06:54:14.110Z,36.13
2022-08-16T06:56:42.532Z,40.75
2022-08-16T06:59:10.255Z,37.47
2022-08-16T07:01:44.795Z,34.70
2022-08-16T07:04:33.337Z,38.13
2022-08-16T07:07:01.000Z,37.42
2022-08-16T07:09:29.803Z,40.10
2022-08-16T07:12:03.261Z,40.20
2022-08-16T07:14:30.299Z,39.20
2022-08-16T07:16:58.202Z,40.05
2022-08-16T07:20:01.856Z,32.65
2022-08-16T07:22:37.069Z,31.92
2022-08-16T07:24:57.929Z,34.92
2022-08-16T07:27:24.255Z,33.35
2022-08-16T07:29:51.206Z,34.25
2022-08-16T07:32:29.504Z,32.83
2022-08-16T07:34:56.316Z,28.92
2022-08-16T07:37:23.262Z,35.50
2022-08-16T07:39:50.500Z,33.88
2022-08-16T07:42:25.936Z,30.08
2022-08-16T07:44:55.208Z,30.45
2022-08-16T07:47:24.697Z,34.15
2022-08-16T07:49:58.775Z,33.70
2022-08-16T07:52:25.144Z,27.67
2022-08-16T07:54:56.407Z,31.45
2022-08-16T07:57:24.182Z,36.00
2022-08-16T07:59:50.666Z,29.17
2022-08-16T08:02:20.162Z,25.67
2022-08-16T08:07:13.725Z,27.52
2022-08-16T08:09:43.405Z,28.60
2022-08-16T08:12:10.194Z,29.02
2022-08-16T08:14:56.470Z,22.90
2022-08-16T08:17:22.918Z,31.35
2022-08-16T08:19:53.311Z,28.65
2022-08-16T08:22:22.260Z,26.08
2022-08-16T08:24:48.730Z,27.17
2022-08-16T08:27:22.609Z,28.83
2022-08-16T08:30:48.815Z,23.63
2022-08-16T08:32:58.072Z,25.30
2022-08-16T08:35:26.874Z,26.00
2022-08-16T08:37:55.816Z,27.52
2022-08-16T08:40:26.741Z,27.02
2022-08-16T08:43:00.479Z,25.20
2022-08-16T08:45:46.907Z,27.65
2022-08-16T08:48:34.189Z,21.33
2022-08-16T08:51:00.245Z,29.15
2022-08-16T08:53:30.401Z,24.13
2022-08-16T08:55:58.845Z,26.88
2022-08-16T08:58:25.903Z,23.38
2022-08-16T09:01:01.598Z,22.05
2022-08-16T09:03:28.420Z,31.08
2022-08-16T09:05:59.154Z,24.95
2022-08-16T09:08:27.368Z,25.35
2022-08-16T09:11:01.959Z,22.95
2022-08-16T09:13:28.940Z,25.48
2022-08-16T09:15:59.571Z,24.52
2022-08-16T09:18:35.755Z,21.63
2022-08-16T09:21:04.142Z,23.25
2022-08-16T09:23:36.290Z,23.33
2022-08-16T09:26:04.365Z,25.55
2022-08-16T09:29:16.776Z,21.42
2022-08-16T09:31:39.188Z,25.10
2022-08-16T09:36:34.366Z,24.52
2022-08-16T09:39:03.224Z,28.67
2022-08-16T09:41:29.970Z,24.08
2022-08-16T09:44:00.211Z,23.50
2022-08-16T09:46:48.992Z,21.45
2022-08-16T09:49:14.130Z,17.65
2022-08-16T09:51:42.030Z,21.63
2022-08-16T09:54:10.607Z,20.30
2022-08-16T09:56:52.523Z,19.48
2022-08-16T09:59:20.907Z,16.83
2022-08-16T10:01:49.778Z,18.50
2022-08-16T10:04:31.675Z,17.80
2022-08-16T10:07:03.149Z,19.67
2022-08-16T10:09:53.656Z,19.70
2022-08-16T10:12:42.523Z,24.27
2022-08-16T10:15:09.551Z,20.67
2022-08-16T10:17:42.498Z,18.30
2022-08-16T10:20:11.356Z,20.67
2022-08-16T10:22:44.927Z,30.48
2022-08-16T10:25:11.400Z,18.33
2022-08-16T10:28:27.849Z,19.27
2022-08-16T10:30:44.043Z,16.75
2022-08-16T10:33:11.559Z,17.85
2022-08-16T10:35:46.598Z,21.67
2022-08-16T10:38:27.047Z,17.58
2022-08-16T10:40:54.576Z,21.10
2022-08-16T10:43:20.843Z,17.50
2022-08-16T10:45:59.940Z,16.17
2022-08-16T10:48:28.963Z,16.40
2022-08-16T10:50:58.737Z,14.82
2022-08-16T10:55:57.441Z,18.00
2022-08-16T10:58:34.517Z,18.45
2022-08-16T11:01:24.997Z,17.45
2022-08-16T11:03:48.850Z,13.90
2022-08-16T11:06:21.568Z,16.92
2022-08-16T11:09:21.063Z,16.40
2022-08-16T11:12:13.676Z,16.85
2022-08-16T11:14:25.850Z,15.13
2022-08-16T11:17:10.432Z,18.80
2022-08-16T11:20:00.724Z,18.40
2022-08-16T11:22:47.335Z,17.30
2022-08-16T11:25:12.645Z,15.35
2022-08-16T11:27:41.587Z,20.77
2022-08-16T11:30:12.327Z,20.43
2022-08-16T11:32:46.095Z,22.63
2022-08-16T11:35:16.108Z,17.08
2022-08-16T11:38:46.797Z,17.17
2022-08-16T11:40:46.853Z,14.40
2022-08-16T11:43:19.585Z,15.25
2022-08-16T11:48:20.713Z,17.73
2022-08-16T11:50:47.233Z,17.55
2022-08-16T11:53:15.254Z,18.60
2022-08-16T11:55:44.144Z,18.98
2022-08-16T11:58:11.347Z,16.67
2022-08-16T12:00:50.799Z,11.18
2022-08-16T12:03:17.901Z,14.32
2022-08-16T12:05:44.720Z,15.73
2022-08-16T12:08:11.428Z,16.92
2022-08-16T12:10:39.476Z,18.42
2022-08-16T12:13:07.264Z,15.13
2022-08-16T12:15:36.749Z,16.13
2022-08-16T12:18:04.243Z,14.45
2022-08-16T12:20:34.180Z,17.25
2022-08-16T12:23:00.972Z,15.27
2022-08-16T12:25:29.592Z,16.88
2022-08-16T12:27:56.495Z,17.35
2022-08-16T12:30:26.986Z,16.00
2022-08-16T12:32:59.755Z,15.25
2022-08-16T12:35:29.869Z,16.90
2022-08-16T12:37:57.268Z,14.05
2022-08-16T12:40:29.155Z,11.40
2022-08-16T12:42:58.855Z,15.98
2022-08-16T12:45:26.868Z,11.70
2022-08-16T12:48:32.811Z,20.00
2022-08-16T12:50:57.884Z,15.63
2022-08-16T12:53:32.001Z,18.77
2022-08-16T12:55:58.811Z,20.50
2022-08-16T12:58:47.497Z,21.25
2022-08-16T13:01:12.002Z,17.77
2022-08-16T13:03:40.590Z,20.85
2022-08-16T13:06:07.317Z,17.42
2022-08-16T13:08:33.642Z,22.85
2022-08-16T13:11:00.448Z,20.67
2022-08-16T13:13:26.777Z,21.52
2022-08-16T13:16:03.639Z,24.65
2022-08-16T13:18:34.755Z,20.65
2022-08-16T13:21:03.767Z,25.23
2022-08-16T13:23:30.168Z,19.77
2022-08-16T13:25:57.282Z,25.30
2022-08-16T13:28:23.974Z,23.30
2022-08-16T13:30:52.056Z,25.88
2022-08-16T13:33:26.139Z,31.23
2022-08-16T13:35:58.232Z,25.55
2022-08-16T13:38:26.095Z,21.50
2022-08-16T13:40:55.694Z,23.42
2022-08-16T13:43:23.302Z,23.15
2022-08-16T13:45:55.630Z,25.20
2022-08-16T13:48:25.025Z,26.63
2022-08-16T13:53:18.907Z,30.52
2022-08-16T13:55:57.778Z,22.38
2022-08-16T13:58:36.595Z,21.40
2022-08-16T14:01:09.998Z,16.67
2022-08-16T14:03:36.871Z,16.25
2022-08-16T14:06:03.607Z,19.38
2022-08-16T14:08:29.904Z,12.38
2022-08-16T14:10:56.179Z,14.13
2022-08-16T14:13:22.473Z,10.55
2022-08-16T14:15:48.927Z,16.30
2022-08-16T14:18:19.941Z,14.25
2022-08-16T14:20:48.710Z,11.45
2022-08-16T14:23:17.919Z,11.93
2022-08-16T14:25:53.895Z,19.83
2022-08-16T14:28:23.477Z,14.50
2022-08-16T14:30:50.017Z,15.90
2022-08-16T14:33:17.703Z,18.80
2022-08-16T14:35:50.097Z,17.90
2022-08-16T14:38:18.487Z,13.15
2022-08-16T14:40:49.462Z,18.05
2022-08-16T14:43:19.512Z,16.50
2022-08-16T14:45:46.172Z,14.70
2022-08-16T14:48:21.496Z,16.40
2022-08-16T14:50:51.870Z,15.10
2022-08-16T14:53:18.120Z,17.95
2022-08-16T14:55:44.376Z,12.43
2022-08-16T14:58:19.690Z,14.90
2022-08-16T15:00:46.535Z,14.70
2022-08-16T15:03:12.903Z,17.25
2022-08-16T15:05:41.367Z,16.45
2022-08-16T15:08:08.258Z,20.05
2022-08-16T15:10:34.947Z,13.93
2022-08-16T15:13:05.241Z,17.73
2022-08-16T15:15:33.909Z,16.48
2022-08-16T15:18:02.197Z,14.73
2022-08-16T15:20:30.776Z,18.00
2022-08-16T15:22:58.530Z,16.00
2022-08-16T15:25:29.263Z,17.90
2022-08-16T15:27:56.540Z,15.48
2022-08-16T15:30:57.843Z,15.20
2022-08-16T15:33:11.858Z,16.50
2022-08-16T15:35:38.829Z,14.68
2022-08-16T15:38:09.045Z,14.57
2022-08-16T15:40:37.042Z,14.75
2022-08-16T15:43:23.284Z,14.80
2022-08-16T15:46:34.912Z,23.27
2022-08-16T15:49:05.517Z,16.20
2022-08-16T15:51:33.414Z,16.63
2022-08-16T15:54:29.630Z,16.10
2022-08-16T15:56:51.330Z,13.70
2022-08-16T15:59:19.002Z,10.88
2022-08-16T16:01:46.427Z,14.70
2022-08-16T16:04:14.856Z,13.88
2022-08-16T16:06:49.145Z,10.50
2022-08-16T16:09:34.525Z,13.52
2022-08-16T16:12:11.960Z,13.13
2022-08-16T16:14:48.503Z,11.55
2022-08-16T16:17:16.900Z,12.85
2022-08-16T16:19:43.705Z,10.23
2022-08-16T16:22:09.971Z,10.02
2022-08-16T16:24:36.253Z,11.85
2022-08-16T16:27:02.641Z,7.65
2022-08-16T16:29:30.184Z,7.78
2022-08-16T16:32:07.440Z,8.85
2022-08-16T16:34:35.491Z,7.20
2022-08-16T16:37:02.524Z,10.70
2022-08-16T16:39:29.084Z,13.73
2022-08-16T16:41:59.454Z,14.05
2022-08-16T16:44:33.918Z,12.35
2022-08-16T16:47:02.787Z,12.95
2022-08-16T16:49:32.804Z,14.93
2022-08-16T16:52:07.181Z,8.50
2022-08-16T16:54:34.935Z,18.55
2022-08-16T16:57:02.061Z,13.75
2022-08-16T16:59:28.729Z,13.68
2022-08-16T17:01:57.406Z,12.73
2022-08-16T17:04:31.844Z,9.00
2022-08-16T17:06:59.349Z,10.77
2022-08-16T17:09:25.681Z,7.80
2022-08-16T17:11:54.769Z,11.63
2022-08-16T17:14:33.765Z,12.93
2022-08-16T17:17:01.245Z,13.07
2022-08-16T17:22:19.905Z,14.68
2022-08-16T17:24:50.947Z,14.30
2022-08-16T17:27:32.516Z,9.93
2022-08-16T17:30:00.928Z,16.88
2022-08-16T17:32:33.936Z,16.20
2022-08-16T17:35:17.842Z,21.05
2022-08-16T17:37:51.181Z,25.27
2022-08-16T17:39:28.191Z,12.55
2022-08-16T17:40:25.830Z,21.67
2022-08-16T17:43:05.571Z,20.92
2022-08-16T17:45:33.072Z,25.65
2022-08-16T17:47:59.454Z,25.85
2022-08-16T17:50:25.724Z,17.73
2022-08-16T17:52:54.836Z,19.73
2022-08-16T17:55:23.468Z,19.90
2022-08-16T17:57:50.289Z,18.30
2022-08-16T18:00:20.407Z,27.73
2022-08-16T18:02:47.659Z,23.65
2022-08-16T18:05:16.021Z,18.33
2022-08-16T18:07:42.722Z,20.83
2022-08-16T18:10:11.979Z,17.15
2022-08-16T18:12:51.070Z,19.73
2022-08-16T18:15:23.288Z,27.52
2022-08-16T18:17:53.168Z,26.58
2022-08-16T18:20:39.653Z,31.52
2022-08-16T18:23:07.945Z,29.65
2022-08-16T18:25:34.568Z,30.42
2022-08-16T18:28:00.849Z,36.85
2022-08-16T18:30:27.127Z,29.27
2022-08-16T18:32:53.552Z,37.38
2022-08-16T18:35:20.527Z,29.15
2022-08-16T18:37:47.559Z,26.83
2022-08-16T18:40:14.702Z,28.85
2022-08-16T18:42:51.294Z,31.55
2022-08-16T18:45:17.703Z,31.65
2022-08-16T18:47:43.960Z,28.65
2022-08-16T18:50:10.298Z,36.35
2022-08-16T18:52:36.560Z,30.35
2022-08-16T18:55:14.050Z,27.15
2022-08-16T18:57:41.617Z,32.92
2022-08-16T19:00:11.366Z,28.73
2022-08-16T19:02:56.950Z,30.83
2022-08-16T19:05:26.173Z,25.58
2022-08-16T19:07:52.510Z,26.55
2022-08-16T19:10:18.994Z,26.45
2022-08-16T19:12:45.291Z,29.42
2022-08-16T19:15:22.256Z,24.35
2022-08-16T19:17:48.685Z,27.08
2022-08-16T19:20:16.444Z,33.10
2022-08-16T19:23:04.765Z,24.85
2022-08-16T19:25:48.910Z,27.23
2022-08-16T19:28:33.405Z,28.95
2022-08-16T19:31:06.759Z,25.83
2022-08-16T19:33:33.405Z,24.63
2022-08-16T19:36:00.182Z,28.38
2022-08-16T19:38:26.476Z,30.30
2022-08-16T19:40:52.746Z,40.05
2022-08-16T19:43:21.752Z,30.33
2022-08-16T19:45:48.367Z,26.17
2022-08-16T19:48:14.767Z,31.45
2022-08-16T19:50:41.045Z,27.98
2022-08-16T19:53:12.381Z,39.17
2022-08-16T19:55:45.849Z,35.00
2022-08-16T19:58:15.188Z,34.42
2022-08-16T20:00:45.488Z,30.23
2022-08-16T20:03:16.542Z,38.13
2022-08-16T20:05:43.520Z,41.63
2022-08-16T20:08:11.173Z,36.72
2022-08-16T20:10:38.221Z,37.08
2022-08-16T20:13:10.000Z,37.05
2022-08-16T20:15:40.919Z,45.80
2022-08-16T20:18:21.195Z,42.47
2022-08-16T20:20:51.508Z,45.90
2022-08-16T20:23:24.891Z,44.63
2022-08-16T20:25:52.815Z,44.47
2022-08-16T20:28:51.012Z,36.08
2022-08-16T20:31:05.678Z,39.33
2022-08-16T20:33:32.015Z,42.25
2022-08-16T20:35:58.278Z,40.72
2022-08-16T20:38:24.974Z,52.28
2022-08-16T20:40:51.272Z,45.05
2022-08-16T20:43:18.900Z,45.95
2022-08-16T20:45:46.009Z,45.10
2022-08-16T20:48:12.716Z,41.63
2022-08-16T20:50:39.414Z,41.67
2022-08-16T20:53:06.182Z,43.83
2022-08-16T20:55:34.283Z,48.13
2022-08-16T20:58:00.537Z,45.83
2022-08-16T21:00:28.913Z,44.80
2022-08-16T21:02:55.259Z,44.65
2022-08-16T21:05:24.080Z,45.90
2022-08-16T21:07:51.246Z,47.30
2022-08-16T21:10:19.596Z,50.55
2022-08-16T21:12:52.943Z,48.00
2022-08-16T21:15:20.534Z,49.42
2022-08-16T21:17:46.789Z,51.50
2022-08-16T21:20:13.148Z,58.20
2022-08-16T21:22:39.672Z,52.85
2022-08-16T21:25:06.661Z,56.67
2022-08-16T21:27:34.825Z,57.85
2022-08-16T21:30:09.314Z,61.15
2022-08-16T21:32:37.795Z,62.25
2022-08-16T21:35:06.395Z,60.90
2022-08-16T21:37:32.692Z,57.17
2022-08-16T21:39:59.012Z,57.95
2022-08-16T21:42:25.317Z,60.40
2022-08-16T21:44:51.644Z,64.60
2022-08-16T21:47:17.900Z,56.13
2022-08-16T21:49:44.225Z,58.05
2022-08-16T21:52:22.669Z,56.38
2022-08-16T21:54:54.117Z,55.03
2022-08-16T21:57:22.779Z,58.45
2022-08-16T21:59:51.740Z,52.22
2022-08-16T22:02:18.599Z,58.10
2022-08-16T22:04:46.209Z,58.83
2022-08-16T22:07:13.248Z,55.80
2022-08-16T22:09:39.520Z,55.53
2022-08-16T22:12:06.113Z,61.03
2022-08-16T22:14:32.379Z,55.40
2022-08-16T22:16:58.652Z,56.88
2022-08-16T22:19:24.915Z,60.60
2022-08-16T22:21:51.452Z,52.28
2022-08-16T22:24:17.744Z,62.03
2022-08-16T22:26:44.037Z,57.70
2022-08-16T22:29:11.537Z,58.97
2022-08-16T22:31:38.472Z,59.22
2022-08-16T22:34:04.931Z,60.35
2022-08-16T22:36:32.945Z,61.28
2022-08-16T22:39:01.323Z,58.47
2022-08-16T22:41:28.609Z,61.83
2022-08-16T22:43:55.051Z,58.15
2022-08-16T22:46:21.327Z,61.83
2022-08-16T22:48:50.144Z,58.65
2022-08-16T22:51:17.174Z,62.72
2022-08-16T22:53:43.636Z,59.40
2022-08-16T22:56:09.893Z,55.58
2022-08-16T22:58:37.360Z,56.63
2022-08-16T23:01:05.688Z,57.17
2022-08-16T23:03:32.188Z,53.53
2022-08-16T23:06:00.310Z,53.05
2022-08-16T23:08:38.484Z,58.55
2022-08-16T23:11:06.700Z,56.23
2022-08-16T23:13:33.002Z,56.60
2022-08-16T23:16:02.981Z,58.53
2022-08-16T23:18:37.945Z,53.42
2022-08-16T23:21:06.836Z,57.33
2022-08-16T23:23:33.083Z,56.70
2022-08-16T23:25:59.362Z,54.42
2022-08-16T23:28:27.301Z,59.00
2022-08-16T23:30:54.108Z,55.30
2022-08-16T23:33:21.222Z,50.85
2022-08-16T23:35:51.911Z,53.80
2022-08-16T23:38:38.262Z,52.92
2022-08-16T23:41:09.300Z,50.80
2022-08-16T23:43:41.558Z,53.92
2022-08-16T23:46:08.722Z,51.72
2022-08-16T23:49:55.976Z,49.53
2022-08-16T23:51:23.341Z,50.83
2022-08-16T23:53:50.078Z,48.50
2022-08-16T23:56:17.420Z,49.38
2022-08-16T23:58:48.269Z,49.90
